Time;durP1;ratioP1;P1;durP2;ratioP2;P2;SDS_P1;SDS_P2;PMS_P1;PMS_P2;Temp;Humidity;BMP_temperature;BMP_pressure;BME280_temperature;BME280_humidity;BME280_pressure;Samples;Min_cycle;Max_cycle;Signal;HPM_P1;HPM_P2
2023/05/30 00:00:10;;;;;;;10.50;3.67;;;11.50;99.90;;;;;;5056101;28;20049;-63
2023/05/30 00:02:37;;;;;;;17.17;4.93;;;11.50;99.90;;;;;;5057065;28;20052;-62
2023/05/30 00:05:06;;;;;;;9.45;3.90;;;11.50;99.90;;;;;;5056565;28;20102;-63
2023/05/30 00:07:33;;;;;;;8.52;3.85;;;11.50;99.90;;;;;;5074320;28;20132;-62
2023/05/30 00:10:00;;;;;;;11.68;3.75;;;11.50;99.90;;;;;;5074461;28;20056;-61
2023/05/30 00:12:28;;;;;;;9.15;3.92;;;11.50;99.90;;;;;;5074842;28;20049;-63
2023/05/30 00:14:55;;;;;;;9.40;3.42;;;11.50;99.90;;;;;;5073841;28;20097;-62
2023/05/30 00:17:22;;;;;;;13.25;4.65;;;11.50;99.90;;;;;;5056416;28;20144;-62
2023/05/30 00:19:52;;;;;;;12.70;3.28;;;11.50;99.90;;;;;;5074866;28;20427;-62
2023/05/30 00:22:20;;;;;;;11.27;4.03;;;11.50;99.90;;;;;;5055791;28;20044;-62
2023/05/30 00:24:49;;;;;;;10.85;3.97;;;11.50;99.90;;;;;;5056602;28;20056;-63
2023/05/30 00:27:17;;;;;;;10.00;3.42;;;11.50;99.90;;;;;;5074688;28;20072;-63
2023/05/30 00:29:45;;;;;;;9.70;3.63;;;11.50;99.90;;;;;;5073975;28;20080;-61
2023/05/30 00:32:12;;;;;;;11.05;3.35;;;11.40;99.90;;;;;;5056663;28;20458;-63
2023/05/30 00:34:38;;;;;;;7.75;3.17;;;11.40;99.90;;;;;;5074313;28;20056;-63
2023/05/30 00:37:08;;;;;;;10.85;3.72;;;11.40;99.90;;;;;;5073666;28;20492;-62
2023/05/30 00:39:37;;;;;;;14.53;3.37;;;11.50;99.90;;;;;;5054596;28;20125;-62
2023/05/30 00:42:04;;;;;;;11.52;3.67;;;11.40;99.90;;;;;;5073651;28;20056;-62
2023/05/30 00:44:31;;;;;;;11.68;3.35;;;11.40;99.90;;;;;;5074279;28;20044;-62
2023/05/30 00:46:59;;;;;;;11.45;3.45;;;11.40;99.90;;;;;;5056130;28;20060;-61
2023/05/30 00:49:27;;;;;;;8.15;3.88;;;11.40;99.90;;;;;;5055561;28;20090;-63
2023/05/30 00:51:54;;;;;;;13.32;3.83;;;11.40;99.90;;;;;;5056114;28;20048;-62
2023/05/30 00:54:23;;;;;;;11.38;4.00;;;11.40;99.90;;;;;;5073745;28;20049;-62
2023/05/30 00:56:51;;;;;;;7.38;2.67;;;11.40;99.90;;;;;;5055715;28;20135;-63
2023/05/30 00:59:20;;;;;;;11.52;3.67;;;11.40;99.90;;;;;;5054894;28;20099;-62
2023/05/30 01:01:47;;;;;;;9.90;3.30;;;11.40;99.90;;;;;;5055813;28;20052;-62
2023/05/30 01:04:15;;;;;;;8.55;3.55;;;11.80;99.90;;;;;;5055275;28;20052;-63
2023/05/30 01:06:46;;;;;;;8.30;3.53;;;11.40;99.90;;;;;;5073828;28;20084;-63
2023/05/30 01:09:14;;;;;;;8.25;3.47;;;11.40;99.90;;;;;;5055220;28;20079;-62
2023/05/30 01:11:54;;;;;;;15.60;3.75;;;11.40;99.90;;;;;;5054962;28;20048;-62
2023/05/30 01:14:27;;;;;;;8.65;3.90;;;11.40;99.90;;;;;;5072440;28;20097;-62
2023/05/30 01:16:58;;;;;;;12.00;3.90;;;11.40;99.90;;;;;;5072059;28;20508;-62
2023/05/30 01:19:47;;;;;;;8.25;3.17;;;11.30;99.90;;;;;;5053282;28;20059;-62
2023/05/30 01:22:21;;;;;;;12.50;3.40;;;11.40;99.90;;;;;;5071201;28;20041;-62
2023/05/30 01:25:05;;;;;;;11.68;3.38;;;11.40;99.90;;;;;;5054964;28;20059;-62
2023/05/30 01:27:48;;;;;;;8.93;3.60;;;12.10;99.90;;;;;;5054110;28;20060;-62
2023/05/30 01:30:17;;;;;;;11.65;3.83;;;11.40;99.90;;;;;;5073099;28;20044;-62
2023/05/30 01:32:44;;;;;;;18.98;3.85;;;11.40;99.90;;;;;;5054696;28;20052;-62
2023/05/30 01:35:22;;;;;;;9.43;4.00;;;11.40;99.90;;;;;;5055014;28;20055;-64
2023/05/30 01:37:49;;;;;;;12.82;4.18;;;11.50;99.90;;;;;;5053581;28;20056;-62
2023/05/30 01:40:20;;;;;;;9.20;3.67;;;11.40;99.90;;;;;;5054454;28;20488;-62
2023/05/30 01:42:50;;;;;;;11.35;4.70;;;11.40;99.90;;;;;;5054985;28;20487;-62
2023/05/30 01:45:24;;;;;;;12.73;3.67;;;11.40;99.90;;;;;;5054537;28;20052;-62
2023/05/30 01:47:59;;;;;;;11.13;3.72;;;11.40;99.90;;;;;;5071729;28;20055;-62
2023/05/30 01:50:33;;;;;;;12.57;3.97;;;11.40;99.90;;;;;;5053997;28;20064;-62
2023/05/30 01:53:00;;;;;;;14.18;4.25;;;11.40;99.90;;;;;;5070821;28;20570;-62
2023/05/30 01:55:30;;;;;;;12.68;3.85;;;11.40;99.90;;;;;;5054952;28;20048;-63
2023/05/30 01:57:58;;;;;;;11.52;3.20;;;11.60;99.90;;;;;;5072761;28;20098;-62
2023/05/30 02:00:28;;;;;;;9.25;4.10;;;11.40;99.90;;;;;;5053943;28;20060;-62
2023/05/30 02:02:55;;;;;;;9.93;4.05;;;11.40;99.90;;;;;;5054676;28;20044;-62
2023/05/30 02:05:22;;;;;;;10.10;3.83;;;11.60;99.90;;;;;;5054852;28;20052;-63
2023/05/30 02:07:49;;;;;;;13.95;4.38;;;11.40;99.90;;;;;;5053999;28;20514;-61
2023/05/30 02:10:17;;;;;;;12.98;4.18;;;11.40;99.90;;;;;;5072195;28;20515;-61
2023/05/30 02:12:43;;;;;;;9.40;3.42;;;11.40;99.90;;;;;;5054454;28;20044;-62
2023/05/30 02:15:11;;;;;;;9.13;3.72;;;11.40;99.90;;;;;;5053861;28;20048;-61
2023/05/30 02:17:40;;;;;;;10.73;3.50;;;11.40;99.90;;;;;;5072393;28;20123;-62
2023/05/30 02:20:08;;;;;;;15.05;3.50;;;11.40;99.90;;;;;;5052692;28;20060;-63
2023/05/30 02:22:34;;;;;;;9.52;3.97;;;11.40;99.90;;;;;;5053745;28;20491;-62
2023/05/30 02:25:01;;;;;;;11.70;4.15;;;11.40;99.90;;;;;;5054474;28;20048;-63
2023/05/30 02:27:28;;;;;;;10.05;3.97;;;11.40;99.90;;;;;;5053764;28;20407;-61
2023/05/30 02:29:55;;;;;;;11.48;4.25;;;11.40;99.90;;;;;;5072250;28;20051;-62
2023/05/30 02:32:22;;;;;;;8.68;4.10;;;12.20;99.90;;;;;;5054284;28;20045;-62
2023/05/30 02:34:50;;;;;;;12.95;3.90;;;11.40;99.90;;;;;;5071906;28;20429;-62
2023/05/30 02:37:17;;;;;;;10.73;4.25;;;11.40;99.90;;;;;;5054050;28;20488;-62
2023/05/30 02:39:44;;;;;;;13.82;4.80;;;12.10;99.90;;;;;;5072268;28;20044;-62
2023/05/30 02:42:11;;;;;;;10.27;4.10;;;11.40;99.90;;;;;;5053659;28;20044;-61
2023/05/30 02:44:39;;;;;;;9.77;3.63;;;11.40;99.90;;;;;;5054248;28;20051;-62
2023/05/30 02:47:06;;;;;;;10.98;4.38;;;11.40;99.90;;;;;;5069896;28;20045;-62
2023/05/30 02:49:35;;;;;;;8.45;3.85;;;11.40;99.90;;;;;;5053398;28;20110;-62
2023/05/30 02:52:04;;;;;;;9.60;4.13;;;11.80;99.90;;;;;;5054183;28;20044;-63
2023/05/30 02:54:31;;;;;;;13.25;4.55;;;11.40;99.90;;;;;;5072204;28;20091;-63
2023/05/30 02:56:58;;;;;;;9.70;3.78;;;11.40;99.90;;;;;;5071557;28;20106;-62
2023/05/30 02:59:25;;;;;;;11.55;4.13;;;11.40;99.90;;;;;;5069649;28;20049;-63
2023/05/30 03:01:52;;;;;;;23.45;3.70;;;11.40;99.90;;;;;;5053835;28;20064;-62
2023/05/30 03:04:19;;;;;;;21.73;4.82;;;11.40;99.90;;;;;;5053221;28;20052;-63
2023/05/30 03:06:50;;;;;;;15.25;4.07;;;11.40;99.90;;;;;;5053681;28;21344;-62
2023/05/30 03:09:18;;;;;;;17.02;5.10;;;11.40;99.90;;;;;;5053522;28;20508;-62
2023/05/30 03:11:45;;;;;;;13.20;3.53;;;11.40;99.90;;;;;;5051264;28;20079;-62
2023/05/30 03:14:12;;;;;;;9.68;4.95;;;11.50;99.90;;;;;;5053645;28;20048;-62
2023/05/30 03:16:39;;;;;;;12.43;4.00;;;11.50;99.90;;;;;;5053393;28;20055;-62
2023/05/30 03:19:07;;;;;;;13.00;4.38;;;11.40;99.90;;;;;;5053692;28;20040;-63
2023/05/30 03:21:36;;;;;;;11.93;4.20;;;12.20;99.90;;;;;;5071871;28;20045;-61
2023/05/30 03:24:03;;;;;;;12.02;4.40;;;11.50;99.90;;;;;;5056544;28;20056;-62
2023/05/30 03:26:31;;;;;;;10.07;4.05;;;11.40;99.90;;;;;;5075344;28;20053;-62
2023/05/30 03:28:58;;;;;;;12.73;4.32;;;12.20;99.90;;;;;;5075733;28;20118;-62
2023/05/30 03:31:27;;;;;;;9.25;4.53;;;11.70;99.90;;;;;;5056967;28;20106;-62
2023/05/30 03:33:54;;;;;;;11.13;4.47;;;11.50;99.90;;;;;;5075651;28;20086;-63
2023/05/30 03:36:21;;;;;;;9.88;3.80;;;11.50;99.90;;;;;;5057605;28;20063;-62
2023/05/30 03:38:48;;;;;;;13.18;3.97;;;11.50;99.90;;;;;;5075004;28;20056;-62
2023/05/30 03:41:15;;;;;;;10.52;4.43;;;11.50;99.90;;;;;;5055255;28;20492;-62
2023/05/30 03:43:43;;;;;;;14.15;4.53;;;11.50;99.90;;;;;;5057163;28;20055;-62
2023/05/30 03:46:10;;;;;;;19.17;4.55;;;11.60;99.90;;;;;;5072804;28;20099;-61
2023/05/30 03:48:37;;;;;;;8.55;4.80;;;11.50;99.90;;;;;;5074720;28;20063;-62
2023/05/30 03:51:05;;;;;;;12.57;4.60;;;11.60;99.90;;;;;;5056986;28;20064;-63
2023/05/30 03:53:32;;;;;;;9.52;4.00;;;11.70;99.90;;;;;;5048851;28;20068;-63
2023/05/30 03:55:59;;;;;;;15.05;4.95;;;11.80;99.90;;;;;;5071250;28;20048;-64
2023/05/30 03:58:25;;;;;;;10.50;3.67;;;11.80;99.90;;;;;;5054104;28;20060;-63
2023/05/30 04:00:54;;;;;;;15.50;4.75;;;11.80;99.90;;;;;;5070818;28;20095;-63
2023/05/30 04:03:21;;;;;;;16.08;4.35;;;12.20;99.90;;;;;;5055386;28;20057;-62
2023/05/30 04:05:48;;;;;;;11.60;4.18;;;11.90;99.90;;;;;;5072418;28;20053;-62
2023/05/30 04:08:15;;;;;;;20.77;5.57;;;11.90;99.90;;;;;;5073215;28;20053;-62
2023/05/30 04:10:42;;;;;;;14.45;4.32;;;11.90;99.90;;;;;;5070694;28;20127;-62
2023/05/30 04:13:09;;;;;;;11.43;4.18;;;12.40;99.90;;;;;;5054960;28;20044;-63
2023/05/30 04:15:36;;;;;;;17.33;4.47;;;12.10;99.90;;;;;;5054843;28;20044;-62
2023/05/30 04:18:05;;;;;;;7.10;3.58;;;12.00;99.90;;;;;;5055773;28;20079;-62
2023/05/30 04:20:32;;;;;;;16.33;4.70;;;12.00;99.90;;;;;;5070705;28;20097;-63
2023/05/30 04:22:59;;;;;;;17.80;4.88;;;12.10;99.90;;;;;;5072567;28;20044;-64
2023/05/30 04:25:26;;;;;;;13.15;4.30;;;12.00;99.90;;;;;;5070813;28;20071;-63
2023/05/30 04:27:54;;;;;;;12.23;3.88;;;12.10;99.90;;;;;;5072426;28;20045;-63
2023/05/30 04:30:21;;;;;;;15.75;4.47;;;12.10;99.90;;;;;;5072357;28;20457;-63
2023/05/30 04:32:48;;;;;;;10.85;3.78;;;12.10;99.90;;;;;;5054851;28;20044;-63
2023/05/30 04:35:17;;;;;;;11.45;3.92;;;12.10;99.90;;;;;;5052004;28;20526;-62
2023/05/30 04:37:44;;;;;;;15.90;5.00;;;12.60;99.90;;;;;;5073101;28;20048;-63
2023/05/30 04:40:12;;;;;;;17.38;4.57;;;12.70;99.90;;;;;;5070834;28;20049;-63
2023/05/30 04:42:40;;;;;;;12.52;4.03;;;12.30;99.90;;;;;;5052575;28;20040;-62
2023/05/30 04:45:08;;;;;;;13.25;4.53;;;12.30;99.90;;;;;;5053414;28;20458;-63
2023/05/30 04:47:36;;;;;;;10.35;4.10;;;12.20;99.90;;;;;;5053718;28;21377;-63
2023/05/30 04:50:03;;;;;;;11.68;4.15;;;12.20;99.90;;;;;;5053018;28;20052;-63
2023/05/30 04:52:31;;;;;;;13.18;3.45;;;12.20;99.90;;;;;;5053943;28;20060;-63
2023/05/30 04:54:58;;;;;;;7.13;3.33;;;12.20;99.90;;;;;;5071455;28;20102;-63
2023/05/30 04:57:25;;;;;;;6.28;3.10;;;12.20;99.90;;;;;;5052761;28;20089;-63
2023/05/30 04:59:53;;;;;;;8.02;3.30;;;12.20;99.90;;;;;;5055169;28;20048;-63
2023/05/30 05:02:20;;;;;;;12.70;3.38;;;12.50;99.90;;;;;;5052524;28;20461;-63
2023/05/30 05:04:47;;;;;;;11.80;3.65;;;12.20;99.90;;;;;;5052781;28;20132;-64
2023/05/30 05:07:14;;;;;;;11.05;3.83;;;12.20;99.90;;;;;;5052870;28;20056;-62
2023/05/30 05:09:42;;;;;;;11.02;3.72;;;12.20;99.90;;;;;;5049201;28;20057;-63
2023/05/30 05:12:10;;;;;;;14.50;4.30;;;12.20;99.90;;;;;;5049807;28;20095;-63
2023/05/30 05:14:37;;;;;;;8.80;3.95;;;12.20;99.90;;;;;;5050678;28;20041;-65
2023/05/30 05:17:05;;;;;;;9.15;3.92;;;12.30;99.90;;;;;;5049099;28;20846;-63
2023/05/30 05:19:32;;;;;;;6.85;3.25;;;12.20;99.90;;;;;;5051796;28;20048;-62
2023/05/30 05:21:58;;;;;;;9.15;3.08;;;12.20;99.90;;;;;;5049521;28;20044;-63
2023/05/30 05:24:25;;;;;;;10.82;2.95;;;12.80;99.90;;;;;;5052285;28;20060;-63
2023/05/30 05:26:54;;;;;;;6.45;2.47;;;12.20;99.90;;;;;;5049293;28;20497;-63
2023/05/30 05:29:21;;;;;;;14.65;3.53;;;12.20;99.90;;;;;;5050861;28;20151;-62
2023/05/30 05:31:47;;;;;;;8.63;2.97;;;12.20;99.90;;;;;;5050506;28;20061;-62
2023/05/30 05:34:14;;;;;;;7.05;3.13;;;12.20;99.90;;;;;;5048480;28;20044;-63
2023/05/30 05:36:43;;;;;;;8.68;3.20;;;12.20;99.90;;;;;;5048365;28;20114;-64
2023/05/30 05:39:10;;;;;;;9.68;3.17;;;12.30;99.90;;;;;;5050438;28;20576;-63
2023/05/30 05:41:37;;;;;;;10.98;3.22;;;12.30;99.90;;;;;;5050757;28;20057;-62
2023/05/30 05:44:05;;;;;;;11.57;3.22;;;12.40;99.90;;;;;;5051938;28;20065;-63
2023/05/30 05:46:32;;;;;;;9.52;3.25;;;12.40;99.90;;;;;;5050836;28;20057;-62
2023/05/30 05:48:59;;;;;;;11.18;2.88;;;12.40;99.90;;;;;;5052298;28;20049;-62
2023/05/30 05:51:26;;;;;;;7.60;3.15;;;12.40;99.90;;;;;;5052926;28;20106;-63
2023/05/30 05:53:53;;;;;;;6.88;2.83;;;12.40;99.90;;;;;;5049005;28;20432;-63
2023/05/30 05:56:21;;;;;;;7.57;3.13;;;12.40;99.90;;;;;;5052054;28;20060;-62
2023/05/30 05:58:48;;;;;;;6.70;2.72;;;12.40;99.90;;;;;;5050987;28;20055;-63
2023/05/30 06:01:16;;;;;;;9.30;2.70;;;12.70;99.90;;;;;;5051550;28;20111;-63
2023/05/30 06:03:43;;;;;;;8.13;3.00;;;12.50;99.90;;;;;;5052586;28;20052;-62
2023/05/30 06:06:11;;;;;;;10.48;3.15;;;12.50;99.90;;;;;;5049999;28;20492;-63
2023/05/30 06:08:38;;;;;;;6.70;2.70;;;12.60;99.90;;;;;;5054539;28;20478;-63
2023/05/30 06:11:05;;;;;;;9.38;3.00;;;12.40;99.90;;;;;;5054820;28;20408;-64
2023/05/30 06:13:32;;;;;;;10.90;2.42;;;12.50;99.90;;;;;;5053947;28;20511;-63
2023/05/30 06:15:59;;;;;;;8.13;3.58;;;12.50;99.90;;;;;;5072445;28;20053;-63
2023/05/30 06:18:27;;;;;;;6.07;2.40;;;12.50;99.90;;;;;;5072368;28;20040;-62
2023/05/30 06:20:54;;;;;;;8.55;3.13;;;12.50;99.90;;;;;;5053852;28;20098;-63
2023/05/30 06:23:22;;;;;;;6.43;2.40;;;12.60;99.90;;;;;;5072148;28;20044;-63
2023/05/30 06:25:48;;;;;;;7.53;2.60;;;12.70;99.90;;;;;;5054350;28;20080;-63
2023/05/30 06:28:16;;;;;;;10.73;2.05;;;12.70;99.90;;;;;;5053756;28;20056;-63
2023/05/30 06:30:43;;;;;;;6.03;2.33;;;12.70;99.90;;;;;;5054478;28;20056;-62
2023/05/30 06:33:09;;;;;;;11.13;2.67;;;12.80;99.90;;;;;;5054202;28;20060;-62
2023/05/30 06:35:39;;;;;;;10.25;2.67;;;12.80;99.90;;;;;;5053776;28;20056;-63
2023/05/30 06:38:05;;;;;;;8.70;2.80;;;12.80;99.90;;;;;;5054140;28;20053;-63
2023/05/30 06:40:32;;;;;;;6.32;2.33;;;12.80;99.90;;;;;;5072166;28;20049;-63
2023/05/30 06:42:59;;;;;;;7.00;2.42;;;12.80;99.90;;;;;;5069355;28;20051;-63
2023/05/30 06:45:26;;;;;;;12.10;2.83;;;12.80;99.90;;;;;;5054082;28;20052;-63
2023/05/30 06:47:53;;;;;;;7.78;2.97;;;12.90;99.90;;;;;;5053545;28;20048;-63
2023/05/30 06:50:20;;;;;;;7.47;2.85;;;13.00;99.90;;;;;;5071895;28;20083;-63
2023/05/30 06:52:48;;;;;;;9.45;2.78;;;13.00;99.90;;;;;;5053877;28;20056;-62
2023/05/30 06:55:16;;;;;;;10.25;2.65;;;13.10;99.90;;;;;;5053509;28;20053;-64
2023/05/30 06:57:44;;;;;;;6.97;2.20;;;13.10;99.90;;;;;;5073272;28;20040;-64
2023/05/30 07:00:12;;;;;;;9.63;2.33;;;13.20;99.90;;;;;;5076159;28;20063;-63
2023/05/30 07:02:39;;;;;;;7.82;2.30;;;13.10;99.90;;;;;;5057555;28;20053;-64
2023/05/30 07:05:07;;;;;;;7.80;2.28;;;13.00;99.90;;;;;;5057597;28;20041;-63
2023/05/30 07:07:35;;;;;;;6.65;2.50;;;13.10;99.90;;;;;;5058008;28;20048;-64
2023/05/30 07:10:03;;;;;;;5.15;2.03;;;13.00;99.90;;;;;;5056850;28;20061;-63
2023/05/30 07:12:30;;;;;;;6.68;2.60;;;13.00;99.90;;;;;;5057805;28;20063;-63
2023/05/30 07:14:57;;;;;;;6.43;2.90;;;13.00;99.90;;;;;;5057817;28;20060;-64
2023/05/30 07:17:24;;;;;;;7.93;2.35;;;13.00;99.90;;;;;;5057047;28;20060;-63
2023/05/30 07:19:51;;;;;;;4.68;2.10;;;13.00;99.90;;;;;;5058311;28;20399;-64
2023/05/30 07:22:18;;;;;;;3.60;1.90;;;13.00;99.90;;;;;;5075798;28;20048;-63
2023/05/30 07:24:45;;;;;;;9.05;2.33;;;13.10;99.90;;;;;;5057071;28;20235;-63
2023/05/30 07:27:14;;;;;;;3.75;1.98;;;13.20;99.90;;;;;;5057705;28;20458;-64
2023/05/30 07:29:41;;;;;;;7.15;2.35;;;13.20;99.90;;;;;;5057387;28;20044;-63
2023/05/30 07:32:10;;;;;;;5.03;2.40;;;13.90;99.90;;;;;;5057116;28;20059;-64
2023/05/30 07:34:37;;;;;;;6.00;1.90;;;13.20;99.90;;;;;;5075350;28;20044;-64
2023/05/30 07:37:04;;;;;;;4.80;1.73;;;13.20;99.90;;;;;;5055468;28;20377;-63
2023/05/30 07:39:31;;;;;;;6.97;1.95;;;13.30;99.90;;;;;;5075348;28;20414;-63
2023/05/30 07:41:58;;;;;;;4.53;1.58;;;13.40;99.90;;;;;;5057501;28;20052;-64
2023/05/30 07:44:27;;;;;;;3.67;1.73;;;13.40;99.90;;;;;;5074542;28;20170;-63
2023/05/30 07:46:54;;;;;;;5.80;2.28;;;13.50;99.90;;;;;;5075211;28;20073;-64
2023/05/30 07:49:21;;;;;;;4.90;1.90;;;13.50;99.90;;;;;;5054871;28;20492;-63
2023/05/30 07:51:49;;;;;;;5.28;2.15;;;13.60;99.90;;;;;;5056612;28;20052;-63
2023/05/30 07:54:16;;;;;;;3.55;1.60;;;13.80;99.90;;;;;;5074892;28;20488;-63
2023/05/30 07:56:42;;;;;;;4.90;1.90;;;13.90;99.90;;;;;;5075010;28;20080;-63
2023/05/30 07:59:09;;;;;;;4.43;1.77;;;14.00;99.90;;;;;;5074358;28;20045;-63
2023/05/30 08:01:38;;;;;;;5.93;1.95;;;14.10;99.90;;;;;;5054980;28;20079;-64
2023/05/30 08:04:05;;;;;;;5.25;1.80;;;14.10;99.90;;;;;;5074803;28;20458;-64
2023/05/30 08:06:33;;;;;;;7.00;1.73;;;14.20;99.90;;;;;;5056354;28;20049;-64
2023/05/30 08:09:00;;;;;;;2.92;1.70;;;14.10;99.90;;;;;;5053035;28;20049;-63
2023/05/30 08:11:27;;;;;;;3.88;1.90;;;14.10;99.90;;;;;;5054758;28;20057;-63
2023/05/30 08:13:55;;;;;;;9.82;2.28;;;14.00;99.90;;;;;;5051717;28;20493;-63
2023/05/30 08:16:23;;;;;;;4.70;2.13;;;13.90;99.90;;;;;;5053590;28;20084;-63
2023/05/30 08:18:52;;;;;;;7.63;1.90;;;13.80;99.90;;;;;;5053693;28;20132;-64
2023/05/30 08:21:19;;;;;;;5.30;2.08;;;13.90;99.90;;;;;;5052697;28;20049;-63
2023/05/30 08:23:46;;;;;;;5.13;1.70;;;14.00;99.90;;;;;;5054702;28;20056;-64
2023/05/30 08:26:13;;;;;;;6.80;1.67;;;14.00;99.90;;;;;;5054551;28;20045;-64
2023/05/30 08:28:41;;;;;;;6.53;2.30;;;14.20;99.90;;;;;;5053805;28;20095;-62
2023/05/30 08:31:08;;;;;;;3.95;1.80;;;15.00;99.90;;;;;;5053358;28;20485;-65
2023/05/30 08:33:36;;;;;;;4.65;1.55;;;15.60;99.90;;;;;;5050838;28;20057;-64
2023/05/30 08:36:05;;;;;;;5.63;1.35;;;15.90;99.90;;;;;;5054407;28;20049;-63
2023/05/30 08:38:33;;;;;;;4.63;1.55;;;16.10;99.90;;;;;;5053059;28;20052;-63
2023/05/30 08:41:00;;;;;;;3.53;1.10;;;16.00;99.90;;;;;;5052338;28;20049;-63
2023/05/30 08:43:28;;;;;;;2.30;1.10;;;16.10;99.90;;;;;;5053189;28;20382;-64
2023/05/30 08:45:55;;;;;;;2.40;0.90;;;16.10;99.90;;;;;;5052864;28;20052;-64
2023/05/30 08:48:24;;;;;;;2.65;1.00;;;16.20;99.90;;;;;;5052612;28;20156;-64
2023/05/30 08:50:52;;;;;;;2.20;1.10;;;16.20;99.90;;;;;;5054044;28;20044;-63
2023/05/30 08:53:26;;;;;;;2.72;0.80;;;16.30;99.90;;;;;;5053097;28;20048;-63
2023/05/30 08:55:59;;;;;;;3.05;0.82;;;16.20;99.90;;;;;;5050386;28;20068;-63
2023/05/30 08:58:30;;;;;;;2.03;0.82;;;16.30;99.90;;;;;;5054108;28;20044;-63
2023/05/30 09:00:58;;;;;;;1.40;0.70;;;16.30;99.90;;;;;;5052837;28;20570;-63
2023/05/30 09:03:27;;;;;;;2.47;0.80;;;16.40;99.90;;;;;;5053457;28;20148;-63
2023/05/30 09:05:56;;;;;;;8.07;1.02;;;16.50;99.90;;;;;;5053670;28;20047;-63
2023/05/30 09:08:25;;;;;;;1.58;0.70;;;16.60;99.90;;;;;;5055766;28;20056;-64
2023/05/30 09:10:52;;;;;;;12.55;1.90;;;16.60;99.90;;;;;;5054766;28;20074;-64
2023/05/30 09:13:20;;;;;;;7.55;1.90;;;16.60;99.90;;;;;;5055126;28;20060;-64
2023/05/30 09:15:47;;;;;;;15.30;2.17;;;17.20;99.90;;;;;;5054658;28;20052;-64
2023/05/30 09:18:16;;;;;;;2.75;0.60;;;18.30;99.90;;;;;;5054889;28;20052;-64
2023/05/30 09:20:43;;;;;;;0.80;0.50;;;18.30;99.90;;;;;;5071786;28;20512;-63
2023/05/30 09:23:11;;;;;;;1.95;0.50;;;18.20;99.90;;;;;;5054557;28;20063;-64
2023/05/30 09:25:44;;;;;;;0.95;0.50;;;17.80;99.90;;;;;;5072444;28;20507;-64
2023/05/30 09:28:11;;;;;;;1.17;0.63;;;17.40;99.90;;;;;;5054888;28;20060;-64
2023/05/30 09:30:54;;;;;;;1.40;0.45;;;17.10;99.90;;;;;;5054224;28;20052;-63
2023/05/30 09:33:21;;;;;;;1.20;0.50;;;16.80;99.90;;;;;;5035695;28;20102;-64
2023/05/30 09:35:52;;;;;;;13.43;2.38;;;16.50;99.90;;;;;;5053946;28;20443;-63
2023/05/30 09:38:23;;;;;;;4.18;0.70;;;16.50;99.90;;;;;;5034220;28;20132;-64
2023/05/30 09:40:56;;;;;;;1.48;0.60;;;16.40;99.90;;;;;;5033724;28;20055;-64
2023/05/30 09:43:34;;;;;;;1.10;0.60;;;16.60;99.90;;;;;;5054713;28;20389;-64
2023/05/30 09:46:02;;;;;;;1.20;0.60;;;16.50;99.90;;;;;;5071902;28;20049;-63
2023/05/30 09:48:29;;;;;;;4.55;1.20;;;16.60;99.90;;;;;;5054443;28;20117;-64
2023/05/30 09:51:00;;;;;;;4.30;1.48;;;16.60;99.90;;;;;;5053765;28;20449;-64
2023/05/30 09:53:29;;;;;;;2.25;1.00;;;16.80;99.90;;;;;;5054599;28;20064;-63
2023/05/30 09:55:58;;;;;;;1.52;0.85;;;16.90;99.90;;;;;;5033485;28;20080;-64
2023/05/30 09:58:25;;;;;;;2.20;1.02;;;17.10;99.90;;;;;;5035121;28;20089;-64
2023/05/30 10:00:54;;;;;;;1.95;0.85;;;17.10;99.90;;;;;;5035547;28;20051;-64
2023/05/30 10:03:21;;;;;;;3.80;0.98;;;17.90;99.90;;;;;;5035418;28;20497;-63
2023/05/30 10:05:48;;;;;;;1.90;0.90;;;18.50;99.90;;;;;;5034557;28;20048;-63
2023/05/30 10:08:16;;;;;;;2.33;1.00;;;18.70;99.90;;;;;;5054710;28;20060;-63
2023/05/30 10:10:44;;;;;;;3.90;0.90;;;18.50;99.90;;;;;;5054457;28;20060;-64
2023/05/30 10:13:12;;;;;;;2.67;0.88;;;18.10;99.90;;;;;;5072154;28;20048;-63
2023/05/30 10:15:39;;;;;;;2.80;0.60;;;17.60;99.90;;;;;;5052640;28;20053;-63
2023/05/30 10:18:09;;;;;;;2.30;0.77;;;17.30;99.90;;;;;;5072302;28;20493;-63
2023/05/30 10:20:38;;;;;;;2.58;0.82;;;17.10;99.90;;;;;;5071804;28;20044;-64
2023/05/30 10:23:07;;;;;;;1.73;0.90;;;16.90;99.90;;;;;;5052375;28;20082;-62
2023/05/30 10:25:37;;;;;;;1.65;0.60;;;16.90;99.90;;;;;;5071993;28;20041;-63
2023/05/30 10:28:06;;;;;;;2.33;0.98;;;16.70;99.90;;;;;;5071781;28;20072;-64
2023/05/30 10:30:35;;;;;;;4.35;0.88;;;16.70;99.90;;;;;;5054322;28;20484;-64
2023/05/30 10:33:05;;;;;;;4.70;1.10;;;16.60;99.90;;;;;;5053424;28;20060;-62
2023/05/30 10:35:33;;;;;;;3.90;0.98;;;16.70;99.90;;;;;;5054283;28;20458;-63
2023/05/30 10:38:01;;;;;;;3.10;0.82;;;16.80;99.90;;;;;;5054173;28;20518;-63
2023/05/30 10:40:36;;;;;;;2.40;0.80;;;16.70;99.90;;;;;;5051523;28;20051;-63
2023/05/30 10:43:16;;;;;;;3.45;0.98;;;16.70;99.90;;;;;;5072388;28;20044;-63
2023/05/30 10:45:53;;;;;;;3.00;1.38;;;16.80;99.90;;;;;;5052686;28;20059;-63
2023/05/30 10:48:27;;;;;;;7.60;1.50;;;16.80;99.90;;;;;;5052461;28;20066;-63
2023/05/30 10:50:59;;;;;;;10.63;1.52;;;16.70;99.90;;;;;;5054344;28;20051;-63
2023/05/30 10:53:26;;;;;;;1.45;0.88;;;16.60;99.90;;;;;;5052726;28;20067;-64
2023/05/30 10:55:53;;;;;;;2.97;1.15;;;16.60;99.90;;;;;;5053493;28;20485;-64
2023/05/30 10:58:37;;;;;;;1.48;0.90;;;16.60;99.90;;;;;;5054246;28;20082;-63
2023/05/30 11:01:25;;;;;;;3.10;1.50;;;16.60;99.90;;;;;;5071200;28;20570;-63
2023/05/30 11:04:01;;;;;;;2.00;0.98;;;16.70;99.90;;;;;;5071882;28;20044;-63
2023/05/30 11:06:33;;;;;;;2.58;1.05;;;16.50;99.90;;;;;;5071623;28;20051;-64
2023/05/30 11:09:08;;;;;;;6.60;1.20;;;16.50;99.90;;;;;;5050067;28;20049;-64
2023/05/30 11:11:39;;;;;;;2.08;0.90;;;16.50;99.90;;;;;;5051961;28;20052;-64
2023/05/30 11:14:06;;;;;;;3.10;1.10;;;16.40;99.90;;;;;;5050664;28;20095;-62
2023/05/30 11:16:48;;;;;;;3.70;1.38;;;16.50;99.90;;;;;;5050914;28;20489;-63
2023/05/30 11:19:15;;;;;;;1.83;0.82;;;16.50;99.90;;;;;;5050860;28;20045;-64
2023/05/30 11:21:54;;;;;;;2.28;0.90;;;16.60;99.90;;;;;;5050584;28;20160;-63
2023/05/30 11:24:21;;;;;;;2.08;1.15;;;16.60;99.90;;;;;;5050170;28;20115;-63
2023/05/30 11:27:08;;;;;;;2.05;1.20;;;16.90;99.90;;;;;;5050250;28;20053;-63
2023/05/30 11:29:37;;;;;;;2.78;1.30;;;17.10;99.90;;;;;;5050162;28;20102;-63
2023/05/30 11:32:07;;;;;;;2.97;1.60;;;17.30;99.90;;;;;;5048527;28;20080;-63
2023/05/30 11:34:34;;;;;;;;;;;17.40;99.90;;;;;;5050857;28;20088;-63
2023/05/30 11:37:02;;;;;;;2.03;1.10;;;17.40;99.90;;;;;;5051228;28;20284;-63
2023/05/30 11:39:31;;;;;;;1.80;1.10;;;17.50;99.90;;;;;;5050368;28;20056;-64
2023/05/30 11:42:00;;;;;;;2.92;1.88;;;17.50;99.90;;;;;;5050526;28;20045;-64
2023/05/30 11:44:26;;;;;;;2.05;0.98;;;17.30;99.90;;;;;;5051173;28;20124;-63
2023/05/30 11:47:00;;;;;;;1.85;1.13;;;17.70;99.90;;;;;;5055254;28;20045;-63
2023/05/30 11:49:29;;;;;;;1.80;1.00;;;17.30;99.90;;;;;;5054155;28;20500;-63
2023/05/30 11:51:56;;;;;;;2.80;1.00;;;17.30;99.90;;;;;;5053402;28;20053;-63
2023/05/30 11:54:23;;;;;;;1.50;0.90;;;17.30;99.90;;;;;;5054098;28;20053;-63
2023/05/30 11:56:51;;;;;;;2.38;1.02;;;17.40;99.90;;;;;;5055055;28;20052;-64
2023/05/30 11:59:22;;;;;;;2.83;1.00;;;17.50;99.90;;;;;;5053440;28;20447;-63
2023/05/30 12:01:53;;;;;;;1.60;0.88;;;17.50;99.90;;;;;;5055107;28;20052;-63
2023/05/30 12:04:25;;;;;;;1.60;0.90;;;17.50;99.90;;;;;;5053773;28;20045;-65
2023/05/30 12:06:53;;;;;;;1.42;0.80;;;17.50;99.90;;;;;;5052105;28;20409;-62
2023/05/30 12:09:21;;;;;;;2.00;1.15;;;17.70;99.90;;;;;;5054126;28;20060;-63
2023/05/30 12:11:56;;;;;;;3.75;1.67;;;17.70;99.90;;;;;;5055278;28;20059;-63
2023/05/30 12:14:37;;;;;;;2.70;1.15;;;17.80;99.90;;;;;;5074186;28;20462;-63
2023/05/30 12:17:13;;;;;;;4.10;1.10;;;17.80;99.90;;;;;;5056183;28;20044;-64
2023/05/30 12:19:41;;;;;;;3.83;1.17;;;17.70;99.90;;;;;;5052683;28;20120;-64
2023/05/30 12:22:10;;;;;;;3.38;1.23;;;17.60;99.90;;;;;;5037467;28;20489;-64
2023/05/30 12:24:37;;;;;;;2.30;1.10;;;17.90;99.90;;;;;;5037296;28;20049;-63
2023/05/30 12:27:06;;;;;;;2.53;1.30;;;17.60;99.90;;;;;;5036363;28;20102;-63
2023/05/30 12:29:34;;;;;;;2.75;1.30;;;17.70;99.90;;;;;;5037008;28;20140;-64
2023/05/30 12:32:01;;;;;;;3.03;1.13;;;17.70;99.90;;;;;;5037106;28;20221;-63
2023/05/30 12:34:42;;;;;;;3.10;1.48;;;18.10;99.90;;;;;;5054174;28;20512;-64
2023/05/30 12:37:11;;;;;;;2.20;1.13;;;17.60;99.90;;;;;;5037087;28;20053;-63
2023/05/30 12:39:46;;;;;;;2.13;1.20;;;17.50;99.90;;;;;;5036498;28;20045;-64
2023/05/30 12:42:13;;;;;;;1.83;1.10;;;17.50;99.90;;;;;;5054771;28;20535;-62
2023/05/30 12:44:50;;;;;;;2.33;1.30;;;17.50;99.90;;;;;;5073520;28;20052;-64
2023/05/30 12:47:17;;;;;;;2.25;1.10;;;17.50;99.90;;;;;;5034296;28;20052;-63
2023/05/30 12:49:45;;;;;;;4.68;1.30;;;17.40;99.90;;;;;;5036727;28;20056;-63